createdAt,value
2023-08-10T00:01:09.525Z,2
2023-08-10T00:06:18.822Z,0
2023-08-10T00:08:02.119Z,0
2023-08-10T00:09:45.543Z,1
2023-08-10T00:11:28.947Z,1
2023-08-10T00:13:12.324Z,1
2023-08-10T00:14:55.683Z,1
2023-08-10T00:16:39.037Z,2
2023-08-10T00:21:48.481Z,1
2023-08-10T00:23:31.689Z,0
2023-08-10T00:25:15.126Z,1
2023-08-10T00:26:58.534Z,1
2023-08-10T00:28:41.870Z,1
2023-08-10T00:30:25.280Z,1
2023-08-10T00:32:08.860Z,1
2023-08-10T00:35:35.232Z,2
2023-08-10T00:37:18.581Z,1
2023-08-10T00:39:02.077Z,1
2023-08-10T00:40:45.383Z,0
2023-08-10T00:42:28.993Z,1
2023-08-10T00:44:12.268Z,1
2023-08-10T00:45:55.711Z,0
2023-08-10T00:47:38.940Z,1
2023-08-10T00:49:22.870Z,1
2023-08-10T00:51:06.079Z,1
2023-08-10T00:52:49.559Z,1
2023-08-10T00:54:32.940Z,0
2023-08-10T00:56:16.357Z,1
2023-08-10T00:57:59.770Z,1
2023-08-10T00:59:43.046Z,0
2023-08-10T01:01:26.444Z,1
2023-08-10T01:03:10.243Z,1
2023-08-10T01:04:53.626Z,1
2023-08-10T01:06:36.963Z,0
2023-08-10T01:08:20.300Z,1
2023-08-10T01:10:03.753Z,1
2023-08-10T01:11:47.207Z,1
2023-08-10T01:13:30.523Z,0
2023-08-10T01:15:14.015Z,1
2023-08-10T01:18:40.357Z,1
2023-08-10T01:20:23.947Z,1
2023-08-10T01:22:07.180Z,1
2023-08-10T01:23:50.585Z,1
2023-08-10T01:25:33.954Z,1
2023-08-10T01:27:17.426Z,1
2023-08-10T01:29:00.753Z,1
2023-08-10T01:32:27.207Z,1
2023-08-10T01:34:10.708Z,0
2023-08-10T01:35:54.076Z,1
2023-08-10T01:37:37.532Z,0
2023-08-10T01:39:20.829Z,1
2023-08-10T01:41:04.297Z,1
2023-08-10T01:42:47.627Z,1
2023-08-10T01:44:30.984Z,1
2023-08-10T01:46:14.756Z,2
2023-08-10T01:47:58.227Z,1
2023-08-10T01:49:41.540Z,1
2023-08-10T01:51:24.889Z,1
2023-08-10T01:53:08.363Z,1
2023-08-10T01:54:51.674Z,0
2023-08-10T01:56:35.071Z,1
2023-08-10T02:01:44.330Z,1
2023-08-10T02:03:27.796Z,0
2023-08-10T02:05:11.162Z,1
2023-08-10T02:06:54.495Z,1
2023-08-10T02:08:38.005Z,0
2023-08-10T02:10:21.343Z,1
2023-08-10T02:12:04.677Z,1
2023-08-10T02:15:31.289Z,1
2023-08-10T02:17:14.588Z,1
2023-08-10T02:18:57.952Z,1
2023-08-10T02:20:41.429Z,1
2023-08-10T02:22:24.801Z,1
2023-08-10T02:24:08.301Z,0
2023-08-10T02:25:51.534Z,1
2023-08-10T02:31:00.950Z,1
2023-08-10T02:32:44.283Z,1
2023-08-10T02:34:27.604Z,1
2023-08-10T02:36:11.100Z,1
2023-08-10T02:37:54.597Z,1
2023-08-10T02:39:37.776Z,0
2023-08-10T02:41:21.177Z,1
2023-08-10T02:46:30.416Z,0
2023-08-10T02:48:13.811Z,1
2023-08-10T02:49:57.208Z,1
2023-08-10T02:51:40.596Z,0
2023-08-10T02:53:24.042Z,1
2023-08-10T02:55:07.393Z,1
2023-08-10T02:56:50.872Z,1
2023-08-10T03:02:00.224Z,1
2023-08-10T03:03:43.462Z,0
2023-08-10T03:05:26.869Z,1
2023-08-10T03:07:10.205Z,1
2023-08-10T03:08:53.634Z,1
2023-08-10T03:10:37.031Z,1
2023-08-10T03:12:20.583Z,1
2023-08-10T03:17:30.375Z,1
2023-08-10T03:19:13.767Z,1
2023-08-10T03:20:57.128Z,1
2023-08-10T03:22:40.537Z,1
2023-08-10T03:24:23.863Z,1
2023-08-10T03:26:07.399Z,1
2023-08-10T03:29:33.782Z,1
2023-08-10T03:31:17.130Z,0
2023-08-10T03:33:00.657Z,0
2023-08-10T03:34:43.922Z,1
2023-08-10T03:36:27.359Z,0
2023-08-10T03:38:10.713Z,1
2023-08-10T03:39:54.111Z,2
2023-08-10T03:41:37.492Z,1
2023-08-10T03:43:21.227Z,1
2023-08-10T03:45:04.620Z,1
2023-08-10T03:46:48.043Z,1
2023-08-10T03:48:31.412Z,1
2023-08-10T03:50:14.794Z,1
2023-08-10T03:51:58.253Z,1
2023-08-10T03:53:41.606Z,2
2023-08-10T03:55:25.020Z,1
2023-08-10T03:57:08.730Z,1
2023-08-10T03:58:52.093Z,2
2023-08-10T04:00:35.483Z,1
2023-08-10T04:02:18.860Z,1
2023-08-10T04:04:02.321Z,2
2023-08-10T04:05:45.722Z,2
2023-08-10T04:07:29.062Z,3
2023-08-10T04:09:12.456Z,3
2023-08-10T04:12:38.941Z,3
2023-08-10T04:14:22.357Z,3
2023-08-10T04:16:05.760Z,4
2023-08-10T04:17:49.118Z,4
2023-08-10T04:19:32.721Z,5
2023-08-10T04:21:15.917Z,5
2023-08-10T04:22:59.403Z,6
2023-08-10T04:26:25.778Z,5
2023-08-10T04:28:09.319Z,6
2023-08-10T04:29:52.619Z,5
2023-08-10T04:31:35.976Z,6
2023-08-10T04:33:19.356Z,6
2023-08-10T04:35:02.794Z,6
2023-08-10T04:36:46.158Z,6
2023-08-10T04:38:29.563Z,6
2023-08-10T04:40:13.256Z,7
2023-08-10T04:41:56.706Z,6
2023-08-10T04:43:40.048Z,6
2023-08-10T04:45:23.597Z,8
2023-08-10T04:47:06.850Z,8
2023-08-10T04:48:50.227Z,9
2023-08-10T04:50:33.634Z,11
2023-08-10T04:52:17.046Z,14
2023-08-10T04:54:00.730Z,14
2023-08-10T04:55:44.121Z,16
2023-08-10T04:57:27.545Z,18
2023-08-10T04:59:10.926Z,20
2023-08-10T05:00:54.317Z,20
2023-08-10T05:02:37.720Z,21
2023-08-10T05:04:21.110Z,20
2023-08-10T05:07:47.585Z,23
2023-08-10T05:09:30.982Z,25
2023-08-10T05:11:14.381Z,26
2023-08-10T05:12:57.854Z,27
2023-08-10T05:14:41.181Z,27
2023-08-10T05:16:24.576Z,26
2023-08-10T05:18:08.022Z,25
2023-08-10T05:23:17.206Z,29
2023-08-10T05:25:00.657Z,30
2023-08-10T05:26:44.005Z,43
2023-08-10T05:28:27.405Z,52
2023-08-10T05:30:10.790Z,52
2023-08-10T05:31:54.187Z,53
2023-08-10T05:33:37.621Z,54
2023-08-10T05:37:04.065Z,70
2023-08-10T05:38:47.448Z,167
2023-08-10T05:40:30.878Z,186
2023-08-10T05:42:14.355Z,196
2023-08-10T05:43:57.737Z,195
2023-08-10T05:45:41.033Z,204
2023-08-10T05:47:24.442Z,219
2023-08-10T05:49:07.908Z,220
2023-08-10T05:50:51.631Z,233
2023-08-10T05:52:34.945Z,250
2023-08-10T05:54:18.361Z,242
2023-08-10T05:56:01.747Z,250
2023-08-10T05:57:45.189Z,270
2023-08-10T05:59:28.515Z,282
2023-08-10T06:01:11.976Z,295
2023-08-10T06:02:55.608Z,362
2023-08-10T06:04:39.109Z,280
2023-08-10T06:06:22.515Z,276
2023-08-10T06:08:05.851Z,319
2023-08-10T06:09:49.260Z,312
2023-08-10T06:11:32.610Z,329
2023-08-10T06:13:15.993Z,362
2023-08-10T06:14:59.412Z,412
2023-08-10T06:20:08.683Z,402
2023-08-10T06:21:52.032Z,406
2023-08-10T06:23:35.433Z,336
2023-08-10T06:25:18.939Z,312
2023-08-10T06:27:03.662Z,300
2023-08-10T06:28:45.613Z,303
2023-08-10T06:30:29.075Z,319
2023-08-10T06:33:55.525Z,366
2023-08-10T06:35:38.973Z,378
2023-08-10T06:37:22.471Z,379
2023-08-10T06:39:06.010Z,380
2023-08-10T06:40:49.166Z,377
2023-08-10T06:42:32.466Z,378
2023-08-10T06:44:15.866Z,384
2023-08-10T06:45:59.449Z,389
2023-08-10T06:47:42.987Z,391
2023-08-10T06:49:26.480Z,395
2023-08-10T06:51:09.762Z,400
2023-08-10T06:52:53.148Z,407
2023-08-10T06:54:36.672Z,414
2023-08-10T06:56:19.974Z,420
2023-08-10T06:58:03.331Z,427
2023-08-10T06:59:46.740Z,436
2023-08-10T07:01:30.437Z,445
2023-08-10T07:03:13.846Z,453
2023-08-10T07:04:57.278Z,458
2023-08-10T07:06:40.633Z,463
2023-08-10T07:08:24.025Z,468
2023-08-10T07:10:07.433Z,473
2023-08-10T07:11:50.828Z,477
2023-08-10T07:13:34.227Z,480
2023-08-10T07:15:17.949Z,485
2023-08-10T07:17:01.312Z,493
2023-08-10T07:18:44.862Z,502
2023-08-10T07:20:28.213Z,510
2023-08-10T07:22:11.642Z,518
2023-08-10T07:23:54.927Z,525
2023-08-10T07:25:38.311Z,533
2023-08-10T07:27:21.706Z,538
2023-08-10T07:30:48.186Z,553
2023-08-10T07:32:31.713Z,561
2023-08-10T07:34:15.015Z,567
2023-08-10T07:35:58.741Z,575
2023-08-10T07:37:41.951Z,584
2023-08-10T07:39:25.477Z,590
2023-08-10T07:41:08.696Z,589
2023-08-10T07:42:52.031Z,601
2023-08-10T07:44:35.789Z,612
2023-08-10T07:46:19.110Z,621
2023-08-10T07:48:02.521Z,628
2023-08-10T07:49:45.971Z,634
2023-08-10T07:51:29.467Z,641
2023-08-10T07:53:12.747Z,646
2023-08-10T07:54:56.218Z,654
2023-08-10T07:56:39.663Z,661
2023-08-10T07:58:23.368Z,669
2023-08-10T08:00:06.627Z,727
2023-08-10T08:01:50.048Z,733
2023-08-10T08:03:33.401Z,747
2023-08-10T08:05:16.892Z,751
2023-08-10T08:07:00.251Z,763
2023-08-10T08:08:43.509Z,770
2023-08-10T08:10:27.056Z,769
2023-08-10T08:12:10.805Z,779
2023-08-10T08:13:54.224Z,780
2023-08-10T08:15:37.667Z,780
2023-08-10T08:17:20.972Z,780
2023-08-10T08:19:04.386Z,779
2023-08-10T08:20:47.714Z,779
2023-08-10T08:22:30.984Z,779
2023-08-10T08:24:14.421Z,779
2023-08-10T08:27:41.011Z,779
2023-08-10T08:29:24.251Z,780
2023-08-10T08:31:07.771Z,779
2023-08-10T08:32:51.144Z,780
2023-08-10T08:34:34.687Z,780
2023-08-10T08:36:17.852Z,780
2023-08-10T08:38:01.301Z,780
2023-08-10T08:39:44.687Z,779
2023-08-10T08:43:11.101Z,780
2023-08-10T08:44:54.525Z,780
2023-08-10T08:46:37.922Z,780
2023-08-10T08:48:21.306Z,780
2023-08-10T08:50:04.724Z,780
2023-08-10T08:51:48.088Z,779
2023-08-10T08:53:31.520Z,780
2023-08-10T08:55:14.905Z,770
2023-08-10T08:56:58.604Z,780
2023-08-10T08:58:42.054Z,781
2023-08-10T09:00:25.381Z,780
2023-08-10T09:02:08.840Z,780
2023-08-10T09:03:52.196Z,780
2023-08-10T09:05:35.603Z,780
2023-08-10T09:07:18.964Z,780
2023-08-10T09:09:03.498Z,779
2023-08-10T09:12:28.843Z,779
2023-08-10T09:14:12.386Z,780
2023-08-10T09:15:55.632Z,780
2023-08-10T09:17:39.109Z,780
2023-08-10T09:19:22.501Z,780
2023-08-10T09:21:05.828Z,780
2023-08-10T09:22:49.238Z,779
2023-08-10T09:24:32.763Z,769
2023-08-10T09:26:16.331Z,780
2023-08-10T09:27:59.885Z,780
2023-08-10T09:29:43.128Z,779
2023-08-10T09:31:26.569Z,780
2023-08-10T09:33:09.957Z,779
2023-08-10T09:34:53.348Z,780
2023-08-10T09:36:36.823Z,781
2023-08-10T09:38:20.098Z,777
2023-08-10T09:40:03.834Z,781
2023-08-10T09:41:47.215Z,781
2023-08-10T09:43:30.617Z,780
2023-08-10T09:45:14.064Z,780
2023-08-10T09:46:57.388Z,779
2023-08-10T09:48:40.968Z,780
2023-08-10T09:50:24.236Z,780
2023-08-10T09:55:33.439Z,781
2023-08-10T09:57:16.835Z,781
2023-08-10T09:59:00.365Z,780
2023-08-10T10:00:43.810Z,780
2023-08-10T10:02:27.095Z,780
2023-08-10T10:04:10.617Z,780
2023-08-10T10:05:53.927Z,780
2023-08-10T10:09:20.291Z,780
2023-08-10T10:11:03.685Z,780
2023-08-10T10:12:47.066Z,780
2023-08-10T10:14:30.537Z,780
2023-08-10T10:16:14.070Z,780
2023-08-10T10:17:57.296Z,780
2023-08-10T10:19:40.775Z,780
2023-08-10T10:23:07.271Z,780
2023-08-10T10:24:50.605Z,780
2023-08-10T10:26:34.233Z,317
2023-08-10T10:28:17.773Z,781
2023-08-10T10:30:01.032Z,780
2023-08-10T10:31:44.379Z,780
2023-08-10T10:33:27.721Z,780
2023-08-10T10:35:10.900Z,780
2023-08-10T10:36:54.806Z,781
2023-08-10T10:38:38.235Z,781
2023-08-10T10:40:21.629Z,781
2023-08-10T10:42:05.016Z,780
2023-08-10T10:43:48.515Z,780
2023-08-10T10:45:31.665Z,780
2023-08-10T10:47:15.118Z,781
2023-08-10T10:48:58.493Z,780
2023-08-10T10:50:42.116Z,781
2023-08-10T10:52:25.526Z,781
2023-08-10T10:54:08.942Z,781
2023-08-10T10:55:52.412Z,781
2023-08-10T10:57:35.744Z,781
2023-08-10T10:59:19.158Z,780
2023-08-10T11:01:02.500Z,781
2023-08-10T11:06:11.904Z,781
2023-08-10T11:07:55.160Z,780
2023-08-10T11:09:38.580Z,781
2023-08-10T11:11:22.006Z,781
2023-08-10T11:13:05.354Z,780
2023-08-10T11:14:48.784Z,780
2023-08-10T11:16:32.288Z,780
2023-08-10T11:18:15.893Z,781
2023-08-10T11:19:59.312Z,781
2023-08-10T11:21:42.855Z,780
2023-08-10T11:23:26.127Z,781
2023-08-10T11:25:09.506Z,782
2023-08-10T11:26:52.955Z,782
2023-08-10T11:28:36.198Z,781
2023-08-10T11:30:19.653Z,780
2023-08-10T11:32:03.480Z,781
2023-08-10T11:33:46.757Z,780
2023-08-10T11:35:30.295Z,780
2023-08-10T11:37:13.795Z,780
2023-08-10T11:38:56.927Z,781
2023-08-10T11:40:40.270Z,781
2023-08-10T11:42:23.731Z,780
2023-08-10T11:47:32.942Z,781
2023-08-10T11:49:16.469Z,780
2023-08-10T11:50:59.794Z,781
2023-08-10T11:52:43.223Z,780
2023-08-10T11:54:26.501Z,781
2023-08-10T11:56:09.888Z,781
2023-08-10T11:57:53.418Z,780
2023-08-10T12:01:19.940Z,780
2023-08-10T12:03:03.220Z,780
2023-08-10T12:04:46.698Z,781
2023-08-10T12:06:29.965Z,780
2023-08-10T12:08:13.356Z,781
2023-08-10T12:09:56.890Z,781
2023-08-10T12:11:40.144Z,780
2023-08-10T12:15:06.680Z,780
2023-08-10T12:16:50.141Z,781
2023-08-10T12:18:33.427Z,782
2023-08-10T12:20:17.053Z,780
2023-08-10T12:22:00.338Z,780
2023-08-10T12:23:43.598Z,781
2023-08-10T12:25:27.092Z,780
2023-08-10T12:28:53.724Z,780
2023-08-10T12:30:37.119Z,781
2023-08-10T12:32:20.382Z,781
2023-08-10T12:34:03.926Z,781
2023-08-10T12:35:47.073Z,781
2023-08-10T12:37:30.450Z,781
2023-08-10T12:39:14.104Z,780
2023-08-10T12:42:40.661Z,781
2023-08-10T12:44:24.112Z,781
2023-08-10T12:46:07.115Z,781
2023-08-10T12:47:50.858Z,781
2023-08-10T12:49:33.909Z,781
2023-08-10T12:51:17.464Z,781
2023-08-10T12:53:01.026Z,781
2023-08-10T12:56:27.427Z,781
2023-08-10T12:58:10.878Z,781
2023-08-10T12:59:54.276Z,781
2023-08-10T13:01:37.354Z,781
2023-08-10T13:03:21.039Z,780
2023-08-10T13:05:04.479Z,781
2023-08-10T13:10:14.325Z,781
2023-08-10T13:11:57.509Z,781
2023-08-10T13:13:40.811Z,781
2023-08-10T13:15:24.213Z,781
2023-08-10T13:17:08.326Z,781
2023-08-10T13:18:51.249Z,781
2023-08-10T13:20:34.720Z,780
2023-08-10T13:24:01.124Z,780
2023-08-10T13:25:44.374Z,781
2023-08-10T13:27:27.987Z,781
2023-08-10T13:29:11.453Z,781
2023-08-10T13:30:54.714Z,781
2023-08-10T13:32:37.865Z,781
2023-08-10T13:34:21.551Z,781
2023-08-10T13:37:48.147Z,781
2023-08-10T13:39:31.488Z,781
2023-08-10T13:41:14.845Z,781
2023-08-10T13:42:58.219Z,781
2023-08-10T13:44:41.320Z,781
2023-08-10T13:46:25.005Z,781
2023-08-10T13:48:08.446Z,781
2023-08-10T13:49:51.813Z,780
2023-08-10T13:51:35.509Z,781
2023-08-10T13:53:18.917Z,780
2023-08-10T13:55:02.314Z,781
2023-08-10T13:56:45.403Z,781
2023-08-10T13:58:29.042Z,781
2023-08-10T14:00:12.526Z,781
2023-08-10T14:01:55.937Z,781
2023-08-10T14:03:39.149Z,770
2023-08-10T14:05:23.118Z,781
2023-08-10T14:07:06.386Z,781
2023-08-10T14:08:49.760Z,780
2023-08-10T14:10:33.062Z,781
2023-08-10T14:12:16.603Z,781
2023-08-10T14:13:59.884Z,781
2023-08-10T14:15:43.229Z,781
2023-08-10T14:17:26.483Z,780
2023-08-10T14:19:10.380Z,781
2023-08-10T14:20:53.579Z,780
2023-08-10T14:22:37.298Z,781
2023-08-10T14:24:20.654Z,781
2023-08-10T14:26:03.776Z,781
2023-08-10T14:27:47.432Z,781
2023-08-10T14:29:30.557Z,781
2023-08-10T14:31:14.107Z,780
2023-08-10T14:32:57.691Z,781
2023-08-10T14:34:41.194Z,781
2023-08-10T14:36:24.524Z,781
2023-08-10T14:38:07.890Z,781
2023-08-10T14:39:51.266Z,781
2023-08-10T14:41:34.726Z,782
2023-08-10T14:43:18.052Z,781
2023-08-10T14:45:01.469Z,780
2023-08-10T14:46:45.243Z,781
2023-08-10T14:48:28.534Z,780
2023-08-10T14:50:12.090Z,781
2023-08-10T14:51:55.494Z,781
2023-08-10T14:53:38.776Z,781
2023-08-10T14:55:22.213Z,781
2023-08-10T14:57:05.595Z,780
2023-08-10T14:58:49.091Z,772
2023-08-10T15:00:32.797Z,781
2023-08-10T15:02:16.455Z,781
2023-08-10T15:03:59.549Z,781
2023-08-10T15:05:43.033Z,781
2023-08-10T15:07:26.279Z,782
2023-08-10T15:09:09.713Z,781
2023-08-10T15:10:53.011Z,781
2023-08-10T15:14:19.604Z,781
2023-08-10T15:16:02.968Z,781
2023-08-10T15:17:46.382Z,780
2023-08-10T15:19:29.668Z,780
2023-08-10T15:21:13.172Z,780
2023-08-10T15:22:56.462Z,780
2023-08-10T15:24:39.938Z,781
2023-08-10T15:29:49.235Z,781
2023-08-10T15:31:32.549Z,781
2023-08-10T15:33:15.936Z,781
2023-08-10T15:34:59.303Z,781
2023-08-10T15:36:42.735Z,781
2023-08-10T15:38:26.077Z,781
2023-08-10T15:40:09.454Z,780
2023-08-10T15:41:53.158Z,781
2023-08-10T15:43:36.594Z,781
2023-08-10T15:45:19.961Z,781
2023-08-10T15:47:03.353Z,781
2023-08-10T15:48:46.743Z,781
2023-08-10T15:50:30.162Z,781
2023-08-10T15:52:13.563Z,781
2023-08-10T15:55:40.030Z,781
2023-08-10T15:57:23.416Z,781
2023-08-10T15:59:06.805Z,781
2023-08-10T16:00:50.218Z,780
2023-08-10T16:02:33.663Z,781
2023-08-10T16:04:17.022Z,782
2023-08-10T16:06:00.401Z,781
2023-08-10T16:09:26.885Z,781
2023-08-10T16:11:10.292Z,781
2023-08-10T16:12:53.679Z,781
2023-08-10T16:14:37.069Z,781
2023-08-10T16:16:20.477Z,781
2023-08-10T16:18:03.870Z,781
2023-08-10T16:19:47.252Z,781
2023-08-10T16:21:30.658Z,771
2023-08-10T16:23:14.358Z,782
2023-08-10T16:24:57.763Z,781
2023-08-10T16:26:41.150Z,782
2023-08-10T16:28:24.561Z,782
2023-08-10T16:30:07.939Z,781
2023-08-10T16:31:51.329Z,781
2023-08-10T16:33:34.740Z,782
2023-08-10T16:38:43.989Z,781
2023-08-10T16:40:27.388Z,782
2023-08-10T16:42:10.766Z,782
2023-08-10T16:43:54.175Z,782
2023-08-10T16:45:37.557Z,782
2023-08-10T16:47:20.970Z,782
2023-08-10T16:49:04.353Z,781
2023-08-10T16:52:30.829Z,782
2023-08-10T16:54:14.227Z,781
2023-08-10T16:55:57.623Z,781
2023-08-10T16:57:41.038Z,781
2023-08-10T16:59:24.435Z,781
2023-08-10T17:01:07.816Z,781
2023-08-10T17:02:51.249Z,782
2023-08-10T17:06:17.700Z,782
2023-08-10T17:08:01.086Z,782
2023-08-10T17:09:44.494Z,782
2023-08-10T17:11:27.883Z,781
2023-08-10T17:13:11.270Z,782
2023-08-10T17:14:54.672Z,782
2023-08-10T17:16:38.081Z,781
2023-08-10T17:20:04.569Z,782
2023-08-10T17:21:47.940Z,781
2023-08-10T17:23:31.344Z,781
2023-08-10T17:25:14.717Z,782
2023-08-10T17:28:41.672Z,782
2023-08-10T17:30:24.982Z,782
2023-08-10T17:33:51.456Z,782
2023-08-10T17:35:34.794Z,782
2023-08-10T17:37:18.174Z,782
2023-08-10T17:39:01.565Z,782
2023-08-10T17:40:45.182Z,782
2023-08-10T17:42:28.432Z,782
2023-08-10T17:44:11.824Z,782
2023-08-10T17:47:38.349Z,254
2023-08-10T17:49:21.633Z,172
2023-08-10T17:51:05.047Z,159
2023-08-10T17:52:48.429Z,152
2023-08-10T17:54:31.866Z,145
2023-08-10T17:56:15.298Z,140
2023-08-10T17:57:58.665Z,135
2023-08-10T18:01:25.098Z,127
2023-08-10T18:03:08.516Z,122
2023-08-10T18:04:51.885Z,116
2023-08-10T18:06:35.274Z,110
2023-08-10T18:08:18.677Z,106
2023-08-10T18:10:02.081Z,103
2023-08-10T18:11:45.470Z,97
2023-08-10T18:15:11.950Z,87
2023-08-10T18:16:55.333Z,83
2023-08-10T18:18:38.748Z,78
2023-08-10T18:20:22.128Z,74
2023-08-10T18:22:05.529Z,71
2023-08-10T18:23:48.924Z,66
2023-08-10T18:25:32.480Z,62
2023-08-10T18:30:41.577Z,52
2023-08-10T18:32:25.063Z,49
2023-08-10T18:34:08.365Z,44
2023-08-10T18:35:51.790Z,41
2023-08-10T18:37:35.225Z,37
2023-08-10T18:39:18.547Z,34
2023-08-10T18:41:01.953Z,31
2023-08-10T18:44:28.432Z,25
2023-08-10T18:46:11.825Z,22
2023-08-10T18:47:55.224Z,19
2023-08-10T18:49:38.611Z,17
2023-08-10T18:51:22.044Z,15
2023-08-10T18:53:05.410Z,13
2023-08-10T18:54:48.803Z,11
2023-08-10T18:59:58.046Z,7
2023-08-10T19:01:41.459Z,7
2023-08-10T19:03:24.841Z,6
2023-08-10T19:05:08.237Z,5
2023-08-10T19:06:51.636Z,3
2023-08-10T19:08:35.033Z,4
2023-08-10T19:10:18.432Z,3
2023-08-10T19:13:44.907Z,2
2023-08-10T19:15:28.308Z,2
2023-08-10T19:17:11.702Z,2
2023-08-10T19:18:55.087Z,2
2023-08-10T19:20:38.514Z,2
2023-08-10T19:22:21.888Z,1
2023-08-10T19:24:05.282Z,1
2023-08-10T19:29:14.522Z,9
2023-08-10T19:30:57.942Z,9
2023-08-10T19:32:41.364Z,9
2023-08-10T19:34:24.729Z,9
2023-08-10T19:36:08.100Z,10
2023-08-10T19:37:51.502Z,10
2023-08-10T19:39:34.933Z,9
2023-08-10T19:43:01.460Z,9
2023-08-10T19:44:44.773Z,9
2023-08-10T19:46:28.172Z,10
2023-08-10T19:48:11.592Z,9
2023-08-10T19:49:54.948Z,9
2023-08-10T19:51:38.363Z,8
2023-08-10T19:53:21.751Z,9
2023-08-10T19:55:05.164Z,9
2023-08-10T19:56:48.875Z,9
2023-08-10T19:58:32.278Z,10
2023-08-10T20:00:15.653Z,10
2023-08-10T20:01:59.039Z,9
2023-08-10T20:03:42.464Z,10
2023-08-10T20:05:25.859Z,9
2023-08-10T20:07:09.251Z,10
2023-08-10T20:08:52.707Z,10
2023-08-10T20:10:36.333Z,10
2023-08-10T20:12:19.738Z,9
2023-08-10T20:14:03.205Z,9
2023-08-10T20:15:46.526Z,9
2023-08-10T20:17:29.925Z,10
2023-08-10T20:19:13.750Z,10
2023-08-10T20:20:56.729Z,9
2023-08-10T20:22:40.137Z,9
2023-08-10T20:24:23.842Z,9
2023-08-10T20:26:07.234Z,9
2023-08-10T20:27:50.641Z,9
2023-08-10T20:29:34.021Z,9
2023-08-10T20:31:17.413Z,9
2023-08-10T20:33:00.820Z,9
2023-08-10T20:34:44.201Z,10
2023-08-10T20:39:53.449Z,10
2023-08-10T20:41:36.844Z,9
2023-08-10T20:43:20.249Z,10
2023-08-10T20:45:03.633Z,10
2023-08-10T20:46:47.100Z,9
2023-08-10T20:48:30.437Z,9
2023-08-10T20:50:13.868Z,10
2023-08-10T20:53:40.297Z,10
2023-08-10T20:55:23.691Z,9
2023-08-10T20:57:07.102Z,9
2023-08-10T20:58:50.482Z,9
2023-08-10T21:00:33.884Z,9
2023-08-10T21:02:17.288Z,10
2023-08-10T21:04:00.685Z,9
2023-08-10T21:07:27.161Z,9
2023-08-10T21:09:10.561Z,9
2023-08-10T21:10:53.958Z,9
2023-08-10T21:12:37.359Z,9
2023-08-10T21:14:20.754Z,9
2023-08-10T21:16:04.157Z,8
2023-08-10T21:17:47.544Z,9
2023-08-10T21:21:14.006Z,9
2023-08-10T21:22:57.481Z,11
2023-08-10T21:24:40.852Z,10
2023-08-10T21:26:24.204Z,9
2023-08-10T21:28:07.602Z,9
2023-08-10T21:29:50.991Z,10
2023-08-10T21:31:34.461Z,9
2023-08-10T21:35:00.876Z,9
2023-08-10T21:36:44.269Z,8
2023-08-10T21:38:27.652Z,9
2023-08-10T21:40:11.056Z,9
2023-08-10T21:41:54.474Z,10
2023-08-10T21:43:37.857Z,9
2023-08-10T21:45:21.306Z,9
2023-08-10T21:48:47.726Z,9
2023-08-10T21:50:31.122Z,9
2023-08-10T21:52:14.510Z,10
2023-08-10T21:53:57.920Z,9
2023-08-10T21:55:41.327Z,10
2023-08-10T21:57:24.703Z,10
2023-08-10T21:59:08.092Z,10
2023-08-10T22:00:51.510Z,10
2023-08-10T22:02:35.214Z,9
2023-08-10T22:04:18.593Z,9
2023-08-10T22:06:01.997Z,10
2023-08-10T22:07:45.404Z,9
2023-08-10T22:09:28.805Z,9
2023-08-10T22:11:12.197Z,9
2023-08-10T22:12:55.596Z,9
2023-08-10T22:18:04.841Z,10
2023-08-10T22:19:48.234Z,9
2023-08-10T22:21:31.631Z,9
2023-08-10T22:23:15.023Z,9
2023-08-10T22:24:58.417Z,9
2023-08-10T22:26:41.821Z,9
2023-08-10T22:28:25.216Z,10
2023-08-10T22:31:51.700Z,10
2023-08-10T22:33:35.076Z,9
2023-08-10T22:35:18.469Z,10
2023-08-10T22:37:01.881Z,10
2023-08-10T22:38:45.277Z,10
2023-08-10T22:40:28.663Z,10
2023-08-10T22:42:12.057Z,8
2023-08-10T22:45:38.531Z,9
2023-08-10T22:47:21.939Z,8
2023-08-10T22:49:05.345Z,1
2023-08-10T22:50:48.745Z,0
2023-08-10T22:52:32.136Z,1
2023-08-10T22:54:15.529Z,1
2023-08-10T22:55:58.928Z,1
2023-08-10T22:57:42.393Z,1
2023-08-10T23:01:08.800Z,1
2023-08-10T23:02:52.188Z,1
2023-08-10T23:04:35.585Z,1
2023-08-10T23:06:18.985Z,1
2023-08-10T23:09:45.776Z,1
2023-08-10T23:11:29.184Z,0
2023-08-10T23:16:38.416Z,1
2023-08-10T23:18:21.821Z,1
2023-08-10T23:20:05.223Z,1
2023-08-10T23:21:48.604Z,1
2023-08-10T23:23:32.006Z,1
2023-08-10T23:25:15.408Z,1
2023-08-10T23:26:58.794Z,1
2023-08-10T23:32:08.032Z,2
2023-08-10T23:33:51.441Z,1
2023-08-10T23:35:34.872Z,1
2023-08-10T23:37:18.238Z,0
2023-08-10T23:39:01.628Z,1
2023-08-10T23:40:45.035Z,1
2023-08-10T23:42:28.413Z,1
2023-08-10T23:47:37.669Z,1
2023-08-10T23:49:21.058Z,1
2023-08-10T23:51:04.453Z,1
2023-08-10T23:52:47.849Z,1
2023-08-10T23:54:31.255Z,1
2023-08-10T23:56:14.648Z,1
2023-08-10T23:57:58.053Z,1
